createdAt,value
2019-06-07T07:09:57.299Z,2.77
2019-06-07T07:12:26.725Z,3.33
2019-06-07T07:14:59.064Z,2.53
2019-06-07T07:17:47.886Z,2.30
2019-06-07T07:20:07.267Z,3.17
2019-06-07T07:22:39.341Z,2.67
2019-06-07T07:25:11.617Z,2.73
2019-06-07T07:27:44.594Z,2.27
2019-06-07T07:30:37.376Z,2.80
2019-06-07T07:32:59.037Z,2.87
2019-06-07T07:35:27.428Z,2.70
2019-06-07T07:37:59.942Z,3.00
2019-06-07T07:40:57.015Z,3.03
2019-06-07T07:43:06.893Z,3.20
2019-06-07T07:45:39.329Z,2.80
2019-06-07T07:48:17.815Z,2.80
2019-06-07T07:50:49.106Z,3.20
2019-06-07T07:53:20.175Z,2.37
2019-06-07T07:55:54.958Z,2.70
2019-06-07T07:58:26.789Z,2.93
2019-06-07T08:01:09.781Z,2.63
2019-06-07T08:03:32.467Z,2.67
2019-06-07T08:06:04.616Z,2.87
2019-06-07T08:08:36.605Z,2.70
2019-06-07T08:11:08.637Z,2.53
2019-06-07T08:13:40.668Z,2.67
2019-06-07T08:16:16.484Z,2.73
2019-06-07T08:18:51.022Z,2.77
2019-06-07T08:21:26.256Z,2.60
2019-06-07T08:23:58.276Z,2.60
2019-06-07T08:26:29.990Z,2.47
2019-06-07T08:29:03.093Z,2.93
2019-06-07T08:31:35.361Z,2.50
2019-06-07T08:34:07.506Z,3.20
2019-06-07T08:36:42.342Z,3.37
2019-06-07T08:39:16.366Z,2.90
2019-06-07T08:41:59.313Z,3.23
2019-06-07T08:44:25.397Z,2.77
2019-06-07T08:47:15.511Z,2.83
2019-06-07T08:49:29.395Z,2.93
2019-06-07T08:52:10.069Z,2.97
2019-06-07T08:54:35.712Z,3.53
2019-06-07T08:57:20.417Z,3.20
2019-06-07T08:59:41.519Z,3.10
2019-06-07T09:02:23.416Z,3.20
2019-06-07T09:04:49.434Z,3.27
2019-06-07T09:07:22.125Z,2.90
2019-06-07T09:10:01.838Z,3.00
2019-06-07T09:12:28.284Z,3.00
2019-06-07T09:15:15.011Z,2.37
2019-06-07T09:17:34.334Z,3.27
2019-06-07T09:20:30.548Z,2.87
2019-06-07T09:22:43.503Z,2.73
2019-06-07T09:25:20.865Z,2.80
2019-06-07T09:27:51.020Z,2.87
2019-06-07T09:30:41.323Z,3.20
2019-06-07T09:33:14.436Z,3.40
2019-06-07T09:35:46.909Z,2.50
2019-06-07T09:38:25.383Z,3.00
2019-06-07T09:40:52.958Z,2.97
2019-06-07T09:44:00.935Z,2.90
2019-06-07T09:46:01.016Z,3.00
2019-06-07T09:49:09.974Z,3.30
2019-06-07T09:51:18.568Z,3.00
2019-06-07T09:53:40.358Z,2.93
2019-06-07T09:56:12.486Z,2.73
2019-06-07T09:58:52.021Z,2.93
2019-06-07T10:01:18.423Z,2.73
2019-06-07T10:03:50.572Z,2.83
2019-06-07T10:06:22.856Z,2.80
2019-06-07T10:11:28.842Z,2.93
2019-06-07T10:14:01.007Z,2.87
2019-06-07T10:16:46.141Z,3.60
2019-06-07T10:19:07.535Z,3.10
2019-06-07T10:21:39.536Z,3.33
2019-06-07T10:24:11.695Z,3.00
2019-06-07T10:26:43.982Z,2.80
2019-06-07T10:29:16.905Z,3.20
2019-06-07T10:31:49.256Z,3.30
2019-06-07T10:34:21.304Z,3.30
2019-06-07T10:36:53.292Z,3.20
2019-06-07T10:39:25.607Z,2.87
2019-06-07T10:41:57.619Z,2.87
2019-06-07T10:44:29.980Z,3.20
2019-06-07T10:47:02.033Z,2.63
2019-06-07T10:49:34.226Z,3.00
2019-06-07T10:52:08.493Z,4.03
2019-06-07T10:54:41.115Z,3.50
2019-06-07T10:57:16.055Z,3.07
2019-06-07T10:59:46.908Z,3.80
2019-06-07T11:02:19.178Z,3.27
2019-06-07T11:04:52.432Z,3.40
2019-06-07T11:07:31.593Z,5.93
2019-06-07T11:10:09.407Z,4.03
2019-06-07T11:12:39.297Z,4.50
2019-06-07T11:15:12.990Z,3.63
2019-06-07T11:17:45.391Z,3.83
2019-06-07T11:20:18.616Z,3.50
2019-06-07T11:22:51.051Z,5.90
2019-06-07T11:25:23.157Z,7.40
2019-06-07T11:27:55.110Z,4.20
2019-06-07T11:30:27.240Z,5.60
2019-06-07T11:32:59.363Z,4.10
2019-06-07T11:35:31.683Z,4.30
2019-06-07T11:38:03.870Z,4.00
2019-06-07T11:40:36.244Z,3.37
2019-06-07T11:43:10.672Z,4.40
2019-06-07T11:45:42.796Z,4.37
2019-06-07T11:48:15.502Z,6.37
2019-06-07T11:50:47.876Z,4.03
2019-06-07T11:53:20.154Z,3.80
2019-06-07T11:55:53.054Z,3.60
2019-06-07T11:58:25.135Z,4.10
2019-06-07T12:00:57.445Z,4.23
2019-06-07T12:03:29.524Z,3.10
2019-06-07T12:06:01.593Z,3.17
2019-06-07T12:08:33.655Z,3.40
2019-06-07T12:11:05.745Z,3.37
2019-06-07T12:13:38.095Z,4.17
2019-06-07T12:16:11.220Z,4.60
2019-06-07T12:18:43.602Z,3.90
2019-06-07T12:21:15.921Z,3.53
2019-06-07T12:23:47.997Z,3.73
2019-06-07T12:26:20.679Z,3.70
2019-06-07T12:28:52.769Z,3.40
2019-06-07T12:31:24.840Z,3.23
2019-06-07T12:33:56.810Z,3.30
2019-06-07T12:36:29.197Z,3.33
2019-06-07T12:39:01.465Z,3.70
2019-06-07T12:41:33.907Z,3.20
2019-06-07T12:44:07.222Z,3.83
2019-06-07T12:46:39.693Z,3.03
2019-06-07T12:49:12.966Z,3.20
2019-06-07T12:51:45.904Z,3.83
2019-06-07T12:54:19.588Z,3.13
2019-06-07T12:56:52.434Z,2.90
2019-06-07T12:59:24.935Z,2.63
2019-06-07T13:02:02.207Z,2.53
2019-06-07T13:04:31.005Z,2.30
2019-06-07T13:07:03.098Z,2.77
2019-06-07T13:09:36.186Z,2.87
2019-06-07T13:12:08.642Z,2.50
2019-06-07T13:14:41.020Z,2.93
2019-06-07T13:17:13.219Z,2.83
2019-06-07T13:19:45.895Z,2.37
2019-06-07T13:22:18.448Z,2.23
2019-06-07T13:24:50.636Z,2.60
2019-06-07T13:27:22.696Z,2.73
2019-06-07T13:29:54.780Z,2.60
2019-06-07T13:32:28.148Z,2.00
2019-06-07T13:35:00.291Z,2.50
2019-06-07T13:37:32.263Z,2.23
2019-06-07T13:40:08.773Z,2.43
2019-06-07T13:42:40.805Z,2.57
2019-06-07T13:45:13.304Z,2.17
2019-06-07T13:47:45.248Z,2.50
2019-06-07T13:50:21.950Z,2.43
2019-06-07T13:52:56.440Z,2.30
2019-06-07T13:55:28.517Z,1.63
2019-06-07T13:58:00.791Z,2.07
2019-06-07T14:00:33.037Z,2.23
2019-06-07T14:03:06.155Z,2.23
2019-06-07T14:05:38.194Z,2.50
2019-06-07T14:08:10.196Z,1.80
2019-06-07T14:10:42.142Z,2.40
2019-06-07T14:13:14.146Z,2.00
2019-06-07T14:15:46.175Z,2.23
2019-06-07T14:18:18.434Z,1.93
2019-06-07T14:20:50.510Z,1.97
2019-06-07T14:23:41.324Z,2.00
2019-06-07T14:25:56.601Z,1.97
2019-06-07T14:28:32.162Z,2.30
2019-06-07T14:31:02.342Z,2.30
2019-06-07T14:33:34.567Z,2.00
2019-06-07T14:36:06.626Z,1.77
2019-06-07T14:38:38.661Z,1.63
2019-06-07T14:41:10.717Z,1.80
2019-06-07T14:43:42.964Z,2.10
2019-06-07T14:46:15.466Z,1.77
2019-06-07T14:48:47.416Z,1.70
2019-06-07T14:51:19.383Z,1.90
2019-06-07T14:53:51.544Z,2.13
2019-06-07T14:56:24.814Z,1.77
2019-06-07T14:58:56.813Z,2.10
2019-06-07T15:01:30.569Z,2.63
2019-06-07T15:04:03.208Z,2.50
2019-06-07T15:06:35.260Z,3.03
2019-06-07T15:09:08.475Z,1.97
2019-06-07T15:11:41.339Z,2.60
2019-06-07T15:14:16.746Z,2.10
2019-06-07T15:16:47.266Z,2.53
2019-06-07T15:19:19.284Z,2.30
2019-06-07T15:21:51.264Z,2.30
2019-06-07T15:24:23.459Z,1.97
2019-06-07T15:29:39.160Z,2.03
2019-06-07T15:32:15.430Z,1.80
2019-06-07T15:34:51.504Z,2.00
2019-06-07T15:37:23.720Z,1.90
2019-06-07T15:39:56.109Z,1.77
2019-06-07T15:42:42.702Z,2.00
2019-06-07T15:45:02.303Z,1.73
2019-06-07T15:47:35.882Z,1.97
2019-06-07T15:50:11.551Z,2.20
2019-06-07T15:52:44.947Z,2.00
2019-06-07T15:55:17.503Z,1.70
2019-06-07T15:57:49.816Z,1.97
2019-06-07T16:00:22.269Z,1.77
2019-06-07T16:02:54.437Z,1.70
2019-06-07T16:05:26.793Z,2.27
2019-06-07T16:07:58.827Z,1.80
2019-06-07T16:10:30.907Z,2.53
2019-06-07T16:13:03.214Z,1.97
2019-06-07T16:15:35.265Z,1.90
2019-06-07T16:18:07.361Z,1.60
2019-06-07T16:20:39.668Z,1.80
2019-06-07T16:23:12.393Z,2.37
2019-06-07T16:25:45.146Z,1.80
2019-06-07T16:28:17.156Z,2.60
2019-06-07T16:30:49.583Z,2.10
2019-06-07T16:33:21.641Z,1.80
2019-06-07T16:35:54.490Z,2.07
2019-06-07T16:38:26.687Z,2.00
2019-06-07T16:40:58.840Z,2.00
2019-06-07T16:43:30.796Z,2.23
2019-06-07T16:46:02.834Z,2.20
2019-06-07T16:48:34.783Z,2.73
2019-06-07T16:51:06.807Z,2.57
2019-06-07T16:53:38.753Z,2.43
2019-06-07T16:56:10.797Z,2.20
2019-06-07T16:58:42.757Z,2.10
2019-06-07T17:01:14.824Z,2.90
2019-06-07T17:03:47.607Z,2.20
2019-06-07T17:06:20.129Z,2.17
2019-06-07T17:08:52.410Z,2.00
2019-06-07T17:11:24.699Z,4.67
2019-06-07T17:13:56.996Z,3.53
2019-06-07T17:16:29.362Z,2.30
2019-06-07T17:19:01.588Z,4.00
2019-06-07T17:21:33.940Z,2.20
2019-06-07T17:24:06.138Z,2.40
2019-06-07T17:26:39.384Z,3.13
2019-06-07T17:29:11.562Z,2.50
2019-06-07T17:31:44.728Z,2.53
2019-06-07T17:34:17.156Z,3.07
2019-06-07T17:36:50.574Z,2.40
2019-06-07T17:39:22.664Z,2.57
2019-06-07T17:42:02.098Z,2.50
2019-06-07T17:44:28.614Z,2.70
2019-06-07T17:47:00.618Z,2.43
2019-06-07T17:49:32.579Z,2.07
2019-06-07T17:52:05.030Z,2.37
2019-06-07T17:54:37.305Z,2.50
2019-06-07T17:57:09.263Z,2.13
2019-06-07T17:59:42.384Z,2.37
2019-06-07T18:02:15.741Z,2.70
2019-06-07T18:04:49.206Z,2.10
2019-06-07T18:07:22.642Z,2.00
2019-06-07T18:09:56.236Z,2.40
2019-06-07T18:12:28.302Z,2.70
2019-06-07T18:15:00.339Z,2.17
2019-06-07T18:17:34.839Z,2.50
2019-06-07T18:20:08.427Z,2.73
2019-06-07T18:22:41.478Z,2.33
2019-06-07T18:25:14.148Z,1.83
2019-06-07T18:27:48.457Z,2.00
2019-06-07T18:30:20.700Z,2.33
2019-06-07T18:32:53.020Z,2.50
2019-06-07T18:35:25.164Z,3.80
2019-06-07T18:37:57.410Z,5.00
2019-06-07T18:40:29.427Z,4.33
2019-06-07T18:43:04.168Z,3.00
2019-06-07T18:45:36.264Z,3.90
2019-06-07T18:48:08.268Z,4.90
2019-06-07T18:50:40.371Z,4.80
2019-06-07T18:53:12.325Z,3.70
2019-06-07T18:55:44.694Z,2.70
2019-06-07T18:58:16.984Z,2.67
2019-06-07T19:00:49.885Z,2.63
2019-06-07T19:03:22.128Z,3.00
2019-06-07T19:05:54.454Z,2.53
2019-06-07T19:08:26.736Z,2.40
2019-06-07T19:10:59.136Z,2.40
2019-06-07T19:13:31.095Z,2.70
2019-06-07T19:16:04.565Z,3.03
2019-06-07T19:18:38.901Z,2.97
2019-06-07T19:21:11.342Z,3.03
2019-06-07T19:23:43.384Z,2.87
2019-06-07T19:26:15.416Z,2.63
2019-06-07T19:28:47.759Z,3.30
2019-06-07T19:31:20.137Z,3.20
2019-06-07T19:33:53.087Z,3.37
2019-06-07T19:36:25.290Z,3.70
2019-06-07T19:38:57.957Z,3.73
2019-06-07T19:41:29.960Z,3.90
2019-06-07T19:44:02.473Z,3.27
2019-06-07T19:46:34.525Z,3.70
2019-06-07T19:49:06.679Z,3.60
2019-06-07T19:51:38.911Z,3.60
2019-06-07T19:54:10.960Z,3.10
2019-06-07T19:56:43.046Z,2.83
2019-06-07T19:59:15.007Z,3.10
2019-06-07T20:01:47.045Z,3.53
2019-06-07T20:04:18.993Z,3.37
2019-06-07T20:06:51.166Z,3.50
2019-06-07T20:09:23.162Z,3.00
2019-06-07T20:11:56.513Z,3.63
2019-06-07T20:14:28.796Z,3.20
2019-06-07T20:17:01.439Z,3.47
2019-06-07T20:19:33.474Z,3.63
2019-06-07T20:22:10.193Z,3.77
2019-06-07T20:24:42.876Z,3.10
2019-06-07T20:27:14.991Z,3.67
2019-06-07T20:29:47.081Z,4.23
2019-06-07T20:32:19.042Z,3.23
2019-06-07T20:34:51.055Z,3.80
2019-06-07T20:37:23.052Z,4.57
2019-06-07T20:39:55.012Z,7.30
2019-06-07T20:42:27.312Z,5.30
2019-06-07T20:44:59.600Z,4.17
2019-06-07T20:47:32.034Z,4.13
2019-06-07T20:50:06.511Z,3.50
2019-06-07T20:52:39.230Z,4.13
2019-06-07T20:55:11.634Z,3.93
2019-06-07T20:57:43.600Z,4.57
2019-06-07T21:00:21.726Z,3.73
2019-06-07T21:02:50.118Z,4.13
2019-06-07T21:05:22.558Z,4.10
2019-06-07T21:07:54.613Z,4.40
2019-06-07T21:10:26.978Z,4.00
2019-06-07T21:12:59.701Z,4.00
2019-06-07T21:15:31.691Z,4.30
2019-06-07T21:18:09.042Z,4.50
2019-06-07T21:20:37.716Z,4.27
2019-06-07T21:23:11.876Z,3.70
2019-06-07T21:25:43.767Z,4.40
2019-06-07T21:28:16.043Z,4.10
2019-06-07T21:30:48.172Z,4.10
2019-06-07T21:33:20.146Z,4.10
2019-06-07T21:35:52.678Z,4.07
2019-06-07T21:38:25.149Z,4.20
2019-06-07T21:40:57.495Z,4.23
2019-06-07T21:43:29.458Z,3.80
2019-06-07T21:46:05.434Z,4.37
2019-06-07T21:48:35.244Z,4.23
2019-06-07T21:51:08.284Z,3.97
2019-06-07T21:53:40.510Z,4.27
2019-06-07T21:56:13.375Z,4.17
2019-06-07T21:58:45.990Z,4.00
2019-06-07T22:01:20.988Z,4.60
2019-06-07T22:03:53.003Z,4.03
2019-06-07T22:06:25.083Z,4.27
2019-06-07T22:08:57.149Z,4.20
2019-06-07T22:11:29.221Z,4.20
2019-06-07T22:14:01.573Z,4.20
2019-06-07T22:16:33.518Z,4.80
2019-06-07T22:19:06.521Z,5.30
2019-06-07T22:21:38.613Z,4.50
2019-06-07T22:24:11.031Z,4.87
2019-06-07T22:26:43.081Z,4.47
2019-06-07T22:29:15.118Z,5.60
2019-06-07T22:31:47.128Z,4.73
2019-06-07T22:34:19.261Z,4.83
2019-06-07T22:36:51.537Z,4.93
2019-06-07T22:39:23.596Z,4.80
2019-06-07T22:41:55.551Z,4.67
2019-06-07T22:44:27.568Z,4.93
2019-06-07T22:46:59.601Z,4.93
2019-06-07T22:49:31.624Z,5.17
2019-06-07T22:52:08.610Z,5.37
2019-06-07T22:54:37.806Z,4.67
2019-06-07T22:57:18.372Z,5.40
2019-06-07T22:59:50.809Z,5.23
2019-06-07T23:02:22.832Z,4.87
2019-06-07T23:04:54.880Z,5.60
2019-06-07T23:07:26.846Z,5.10
2019-06-07T23:09:59.159Z,6.27
2019-06-07T23:12:31.186Z,5.90
2019-06-07T23:15:03.251Z,5.57
2019-06-07T23:17:35.244Z,5.63
2019-06-07T23:20:09.675Z,6.53
2019-06-07T23:22:41.737Z,6.23
2019-06-07T23:25:19.920Z,6.10
2019-06-07T23:27:49.037Z,6.27
2019-06-07T23:30:21.769Z,6.30
2019-06-07T23:32:53.838Z,6.23
2019-06-07T23:35:25.859Z,6.23
2019-06-07T23:37:57.844Z,6.40
2019-06-07T23:40:29.811Z,6.03
2019-06-07T23:43:01.806Z,6.27
2019-06-07T23:45:33.924Z,6.93
2019-06-07T23:48:05.886Z,6.80
2019-06-07T23:50:37.938Z,7.20
2019-06-07T23:53:11.608Z,7.40
2019-06-07T23:55:43.740Z,7.20
2019-06-07T23:58:15.974Z,7.00
